createdAt,value
2022-10-28T00:00:57.476Z,6.20
2022-10-28T00:03:25.474Z,6.03
2022-10-28T00:05:54.380Z,7.50
2022-10-28T00:08:22.350Z,6.13
2022-10-28T00:10:50.325Z,8.90
2022-10-28T00:13:18.334Z,7.10
2022-10-28T00:15:47.701Z,8.20
2022-10-28T00:18:15.690Z,8.27
2022-10-28T00:20:43.679Z,5.17
2022-10-28T00:23:11.713Z,6.37
2022-10-28T00:25:39.717Z,6.43
2022-10-28T00:28:07.697Z,6.63
2022-10-28T00:30:35.654Z,7.77
2022-10-28T00:33:05.160Z,6.07
2022-10-28T00:35:33.870Z,9.97
2022-10-28T00:38:01.837Z,6.17
2022-10-28T00:40:34.457Z,8.03
2022-10-28T00:43:02.437Z,7.10
2022-10-28T00:45:30.930Z,5.77
2022-10-28T00:48:01.959Z,7.77
2022-10-28T00:50:46.474Z,7.37
2022-10-28T00:53:18.607Z,7.57
2022-10-28T00:55:48.101Z,8.53
2022-10-28T00:58:17.195Z,8.53
2022-10-28T01:00:45.318Z,8.90
2022-10-28T01:03:13.334Z,9.77
2022-10-28T01:05:45.155Z,6.40
2022-10-28T01:08:13.622Z,7.43
2022-10-28T01:11:06.198Z,8.17
2022-10-28T01:13:48.882Z,6.53
2022-10-28T01:16:26.485Z,8.10
2022-10-28T01:19:04.977Z,6.90
2022-10-28T01:22:02.506Z,9.40
2022-10-28T01:24:47.314Z,8.17
2022-10-28T01:27:50.886Z,8.47
2022-10-28T01:30:20.972Z,6.07
2022-10-28T01:32:59.314Z,8.20
2022-10-28T01:35:33.564Z,7.30
2022-10-28T01:38:21.305Z,7.10
2022-10-28T01:40:56.207Z,7.60
2022-10-28T01:43:30.474Z,10.67
2022-10-28T01:46:02.661Z,6.63
2022-10-28T01:51:15.569Z,11.83
2022-10-28T01:53:47.155Z,8.20
2022-10-28T01:56:18.974Z,9.93
2022-10-28T01:58:48.365Z,9.03
2022-10-28T02:01:17.562Z,6.17
2022-10-28T02:03:49.000Z,10.63
2022-10-28T02:06:20.354Z,8.03
2022-10-28T02:09:02.157Z,8.33
2022-10-28T02:11:43.745Z,6.53
2022-10-28T02:14:23.290Z,9.70
2022-10-28T02:16:55.895Z,6.73
2022-10-28T02:19:34.708Z,9.07
2022-10-28T02:22:13.011Z,7.67
2022-10-28T02:24:50.790Z,9.53
2022-10-28T02:27:26.882Z,8.20
2022-10-28T02:30:01.085Z,15.23
2022-10-28T02:32:32.059Z,6.80
2022-10-28T02:35:03.407Z,8.60
2022-10-28T02:37:34.284Z,7.90
2022-10-28T02:40:06.684Z,8.57
2022-10-28T02:42:38.321Z,8.20
2022-10-28T02:45:11.476Z,6.80
2022-10-28T02:47:43.783Z,9.80
2022-10-28T02:50:18.754Z,9.33
2022-10-28T02:52:52.347Z,9.70
2022-10-28T02:55:25.058Z,9.07
2022-10-28T02:57:53.367Z,7.80
2022-10-28T03:00:24.561Z,7.30
2022-10-28T03:02:52.609Z,10.47
2022-10-28T03:05:21.986Z,10.10
2022-10-28T03:07:49.966Z,7.50
2022-10-28T03:10:18.246Z,7.13
2022-10-28T03:12:46.246Z,11.63
2022-10-28T03:15:14.441Z,7.50
2022-10-28T03:17:42.407Z,11.30
2022-10-28T03:20:11.765Z,9.93
2022-10-28T03:22:43.464Z,10.17
2022-10-28T03:25:11.704Z,8.77
2022-10-28T03:27:40.969Z,9.60
2022-10-28T03:30:09.751Z,7.33
2022-10-28T03:32:37.719Z,7.13
2022-10-28T03:35:06.918Z,7.03
2022-10-28T03:37:34.925Z,8.70
2022-10-28T03:40:07.884Z,7.47
2022-10-28T03:42:38.841Z,9.70
2022-10-28T03:45:09.796Z,7.90
2022-10-28T03:47:37.821Z,10.80
2022-10-28T03:50:06.238Z,9.47
2022-10-28T03:52:34.257Z,7.13
2022-10-28T03:55:06.654Z,9.50
2022-10-28T03:57:35.190Z,8.57
2022-10-28T04:00:03.381Z,9.20
2022-10-28T04:02:39.729Z,7.83
2022-10-28T04:05:08.499Z,7.80
2022-10-28T04:07:36.518Z,10.63
2022-10-28T04:10:06.496Z,12.57
2022-10-28T04:12:34.523Z,6.80
2022-10-28T04:15:02.613Z,8.50
2022-10-28T04:17:31.362Z,8.37
2022-10-28T04:19:59.354Z,6.23
2022-10-28T04:22:27.366Z,9.07
2022-10-28T04:24:55.533Z,10.50
2022-10-28T04:27:24.935Z,9.47
2022-10-28T04:29:52.956Z,9.77
2022-10-28T04:32:20.952Z,9.90
2022-10-28T04:34:48.914Z,7.77
2022-10-28T04:37:20.274Z,9.60
2022-10-28T04:39:48.776Z,11.53
2022-10-28T04:42:17.659Z,9.63
2022-10-28T04:44:47.007Z,8.57
2022-10-28T04:47:14.973Z,9.33
2022-10-28T04:49:43.009Z,9.33
2022-10-28T04:52:14.821Z,7.90
2022-10-28T04:54:43.865Z,8.10
2022-10-28T04:57:11.847Z,6.67
2022-10-28T04:59:39.841Z,7.03
2022-10-28T05:02:09.321Z,10.23
2022-10-28T05:04:37.386Z,7.37
2022-10-28T05:07:05.376Z,7.63
2022-10-28T05:09:33.382Z,11.77
2022-10-28T05:12:02.478Z,10.57
2022-10-28T05:14:30.478Z,9.17
2022-10-28T05:16:58.588Z,8.17
2022-10-28T05:19:27.937Z,5.83
2022-10-28T05:21:55.899Z,6.63
2022-10-28T05:24:23.881Z,8.23
2022-10-28T05:26:51.861Z,8.53
2022-10-28T05:29:20.298Z,12.07
2022-10-28T05:31:48.306Z,9.97
2022-10-28T05:34:16.330Z,7.27
2022-10-28T05:36:45.658Z,9.00
2022-10-28T05:39:13.863Z,11.30
2022-10-28T05:41:41.856Z,9.13
2022-10-28T05:44:09.934Z,10.93
2022-10-28T05:46:37.945Z,8.17
2022-10-28T05:49:06.088Z,8.00
2022-10-28T05:51:34.155Z,11.63
2022-10-28T05:54:03.526Z,9.17
2022-10-28T05:56:31.505Z,11.20
2022-10-28T05:58:59.689Z,7.03
2022-10-28T06:01:27.709Z,9.27
2022-10-28T06:03:55.860Z,7.73
2022-10-28T06:06:23.938Z,8.20
2022-10-28T06:08:51.950Z,7.17
2022-10-28T06:11:19.794Z,8.23
2022-10-28T06:13:47.809Z,8.33
2022-10-28T06:16:15.817Z,7.47
2022-10-28T06:18:43.807Z,9.30
2022-10-28T06:21:11.814Z,12.67
2022-10-28T06:23:39.851Z,8.53
2022-10-28T06:26:09.565Z,8.77
2022-10-28T06:28:38.889Z,8.40
2022-10-28T06:31:08.375Z,7.23
2022-10-28T06:33:36.442Z,10.33
2022-10-28T06:36:04.853Z,8.60
2022-10-28T06:38:32.848Z,10.47
2022-10-28T06:41:00.828Z,8.30
2022-10-28T06:43:28.814Z,9.87
2022-10-28T06:46:01.294Z,10.60
2022-10-28T06:48:30.828Z,9.30
2022-10-28T06:50:59.187Z,9.77
2022-10-28T06:53:27.384Z,8.90
2022-10-28T06:55:55.665Z,8.97
2022-10-28T06:58:24.124Z,8.87
2022-10-28T07:00:52.572Z,11.13
2022-10-28T07:03:21.999Z,14.13
2022-10-28T07:05:51.501Z,11.53
2022-10-28T07:08:19.702Z,8.77
2022-10-28T07:10:55.360Z,9.40
2022-10-28T07:13:23.668Z,7.67
2022-10-28T07:15:55.495Z,10.47
2022-10-28T07:18:26.313Z,9.67
2022-10-28T07:20:54.445Z,10.20
2022-10-28T07:23:22.436Z,8.73
2022-10-28T07:25:54.676Z,9.60
2022-10-28T07:28:24.746Z,10.03
2022-10-28T07:30:52.881Z,9.90
2022-10-28T07:33:21.138Z,9.97
2022-10-28T07:35:50.501Z,8.60
2022-10-28T07:38:18.620Z,8.37
2022-10-28T07:40:46.643Z,8.30
2022-10-28T07:43:14.687Z,8.03
2022-10-28T07:45:42.687Z,10.87
2022-10-28T07:48:11.110Z,11.23
2022-10-28T07:50:40.633Z,8.73
2022-10-28T07:53:10.035Z,7.67
2022-10-28T07:55:38.037Z,9.03
2022-10-28T07:58:06.053Z,15.10
2022-10-28T08:00:34.184Z,9.10
2022-10-28T08:03:03.647Z,10.23
2022-10-28T08:05:31.769Z,9.03
2022-10-28T08:08:00.025Z,9.37
2022-10-28T08:10:29.432Z,9.87
2022-10-28T08:12:58.181Z,16.37
2022-10-28T08:15:26.419Z,9.63
2022-10-28T08:17:55.011Z,8.60
2022-10-28T08:20:23.192Z,9.63
2022-10-28T08:22:51.417Z,8.10
2022-10-28T08:25:19.676Z,9.83
2022-10-28T08:27:49.024Z,7.37
2022-10-28T08:30:17.236Z,9.87
2022-10-28T08:32:45.256Z,12.03
2022-10-28T08:35:13.268Z,8.03
2022-10-28T08:37:41.244Z,10.57
2022-10-28T08:40:12.984Z,8.67
2022-10-28T08:42:47.389Z,7.73
2022-10-28T08:45:32.833Z,10.13
2022-10-28T08:48:10.625Z,9.70
2022-10-28T08:50:46.739Z,7.43
2022-10-28T08:53:18.473Z,9.07
2022-10-28T08:55:49.513Z,5.53
2022-10-28T08:58:27.886Z,8.10
2022-10-28T09:00:59.841Z,8.83
2022-10-28T09:03:33.255Z,8.37
2022-10-28T09:06:05.303Z,12.07
2022-10-28T09:08:36.794Z,9.70
2022-10-28T09:11:28.713Z,9.77
2022-10-28T09:14:11.199Z,9.27
2022-10-28T09:16:47.842Z,7.57
2022-10-28T09:19:25.466Z,10.47
2022-10-28T09:22:03.953Z,11.40
2022-10-28T09:24:44.171Z,10.60
2022-10-28T09:27:20.750Z,8.97
2022-10-28T09:29:56.042Z,8.63
2022-10-28T09:32:31.981Z,8.13
2022-10-28T09:35:06.293Z,8.37
2022-10-28T09:37:39.227Z,12.53
2022-10-28T09:40:17.980Z,7.43
2022-10-28T09:42:55.880Z,8.40
2022-10-28T09:45:28.768Z,11.00
2022-10-28T09:48:01.468Z,9.60
2022-10-28T09:50:32.045Z,9.17
2022-10-28T09:53:05.856Z,9.17
2022-10-28T09:55:34.023Z,10.90
2022-10-28T09:58:04.345Z,9.20
2022-10-28T10:00:33.505Z,7.70
2022-10-28T10:03:02.962Z,8.03
2022-10-28T10:05:34.210Z,10.37
2022-10-28T10:08:06.229Z,8.97
2022-10-28T10:10:43.698Z,11.10
2022-10-28T10:13:15.394Z,9.07
2022-10-28T10:15:46.293Z,9.77
2022-10-28T10:18:19.856Z,10.37
2022-10-28T10:20:52.376Z,7.00
2022-10-28T10:23:27.917Z,8.83
2022-10-28T10:25:59.309Z,8.63
2022-10-28T10:28:29.220Z,8.57
2022-10-28T10:30:58.740Z,8.30
2022-10-28T10:33:32.243Z,9.63
2022-10-28T10:36:03.787Z,12.20
2022-10-28T10:38:33.063Z,6.60
2022-10-28T10:41:01.080Z,10.27
2022-10-28T10:43:33.269Z,11.77
2022-10-28T10:46:03.751Z,11.93
2022-10-28T10:48:36.619Z,9.57
2022-10-28T10:51:09.622Z,7.80
2022-10-28T10:53:39.112Z,15.00
2022-10-28T10:56:10.656Z,6.83
2022-10-28T10:58:41.339Z,10.67
2022-10-28T11:01:11.044Z,10.43
2022-10-28T11:03:49.378Z,10.43
2022-10-28T11:06:24.224Z,9.00
2022-10-28T11:08:58.287Z,10.90
2022-10-28T11:11:34.341Z,8.97
2022-10-28T11:14:08.431Z,12.63
2022-10-28T11:16:49.457Z,7.50
2022-10-28T11:19:23.052Z,11.00
2022-10-28T11:22:17.948Z,8.47
2022-10-28T11:25:20.334Z,7.93
2022-10-28T11:28:03.127Z,10.57
2022-10-28T11:30:41.357Z,9.57
2022-10-28T11:33:29.449Z,12.57
2022-10-28T11:36:14.601Z,11.37
2022-10-28T11:39:05.417Z,12.83
2022-10-28T11:41:50.844Z,8.70
2022-10-28T11:44:33.212Z,8.00
2022-10-28T11:47:15.306Z,13.00
2022-10-28T11:50:14.112Z,11.53
2022-10-28T11:53:19.068Z,8.73
2022-10-28T11:55:54.152Z,8.70
2022-10-28T11:58:33.213Z,9.00
2022-10-28T12:01:15.008Z,12.70
2022-10-28T12:04:07.244Z,7.07
2022-10-28T12:06:53.532Z,9.27
2022-10-28T12:09:31.768Z,10.47
2022-10-28T12:12:08.276Z,8.37
2022-10-28T12:14:45.213Z,10.60
2022-10-28T12:17:19.064Z,9.30
2022-10-28T12:19:53.609Z,11.60
2022-10-28T12:22:27.022Z,10.27
2022-10-28T12:24:57.808Z,10.67
2022-10-28T12:27:30.156Z,12.40
2022-10-28T12:30:02.492Z,8.87
2022-10-28T12:32:34.474Z,11.27
2022-10-28T12:35:06.563Z,9.33
2022-10-28T12:37:42.205Z,12.07
2022-10-28T12:40:20.638Z,9.17
2022-10-28T12:42:55.340Z,12.33
2022-10-28T12:45:25.005Z,7.97
2022-10-28T12:48:00.462Z,10.93
2022-10-28T12:50:35.462Z,9.57
2022-10-28T12:53:22.885Z,11.50
2022-10-28T12:55:57.841Z,12.87
2022-10-28T12:58:31.876Z,10.07
2022-10-28T13:01:03.908Z,10.10
2022-10-28T13:03:32.039Z,10.40
2022-10-28T13:06:11.720Z,11.27
2022-10-28T13:09:08.968Z,12.90
2022-10-28T13:12:01.783Z,11.73
2022-10-28T13:14:52.488Z,13.03
2022-10-28T13:17:31.087Z,10.47
2022-10-28T13:20:12.493Z,11.43
2022-10-28T13:22:56.979Z,10.63
2022-10-28T13:25:46.636Z,11.03
2022-10-28T13:28:17.838Z,14.43
2022-10-28T13:30:56.728Z,12.80
2022-10-28T13:33:26.909Z,8.53
2022-10-28T13:35:56.755Z,10.57
2022-10-28T13:38:27.787Z,11.73
2022-10-28T13:41:28.011Z,7.70
2022-10-28T13:44:25.332Z,9.17
2022-10-28T13:47:30.800Z,14.00
2022-10-28T13:50:32.847Z,11.13
2022-10-28T13:53:46.009Z,11.23
2022-10-28T13:56:38.055Z,9.97
2022-10-28T13:59:17.313Z,9.17
2022-10-28T14:02:32.555Z,10.63
2022-10-28T14:05:03.860Z,9.40
2022-10-28T14:07:33.841Z,11.07
2022-10-28T14:10:20.470Z,10.43
2022-10-28T14:12:52.526Z,9.90
2022-10-28T14:15:25.387Z,14.03
2022-10-28T14:18:05.124Z,14.70
2022-10-28T14:21:00.686Z,12.30
2022-10-28T14:23:51.326Z,11.43
2022-10-28T14:26:19.364Z,13.20
2022-10-28T14:28:54.815Z,8.47
2022-10-28T14:31:42.969Z,12.13
2022-10-28T14:34:44.998Z,11.27
2022-10-28T14:37:58.698Z,13.80
2022-10-28T14:40:41.303Z,10.40
2022-10-28T14:43:19.111Z,9.00
2022-10-28T14:45:59.738Z,14.30
2022-10-28T14:48:46.372Z,13.20
2022-10-28T14:51:18.286Z,12.93
2022-10-28T14:53:47.430Z,12.57
2022-10-28T14:58:52.293Z,9.57
2022-10-28T15:01:26.991Z,16.67
2022-10-28T15:03:58.956Z,7.87
2022-10-28T15:06:36.253Z,9.07
2022-10-28T15:09:08.130Z,11.37
2022-10-28T15:11:36.240Z,12.03
2022-10-28T15:14:16.217Z,10.37
2022-10-28T15:16:48.978Z,9.40
2022-10-28T15:19:21.143Z,10.33
2022-10-28T15:22:04.944Z,8.93
2022-10-28T15:24:33.277Z,10.33
2022-10-28T15:27:01.305Z,13.60
2022-10-28T15:29:29.518Z,9.93
2022-10-28T15:32:16.289Z,12.53
2022-10-28T15:34:44.915Z,14.70
2022-10-28T15:37:18.706Z,12.47
2022-10-28T15:39:46.899Z,11.00
2022-10-28T15:42:36.797Z,11.47
2022-10-28T15:45:05.606Z,13.33
2022-10-28T15:47:35.359Z,12.27
2022-10-28T15:50:25.446Z,11.53
2022-10-28T15:52:57.385Z,14.80
2022-10-28T15:55:47.788Z,17.37
2022-10-28T15:58:41.075Z,10.83
2022-10-28T16:01:11.438Z,12.37
2022-10-28T16:03:44.396Z,11.77
2022-10-28T16:06:25.734Z,16.43
2022-10-28T16:09:08.301Z,13.23
2022-10-28T16:11:41.339Z,10.23
2022-10-28T16:14:30.072Z,11.97
2022-10-28T16:19:42.019Z,16.80
2022-10-28T16:22:13.631Z,13.20
2022-10-28T16:24:43.388Z,10.73
2022-10-28T16:27:22.076Z,17.77
2022-10-28T16:29:50.125Z,11.57
2022-10-28T16:32:20.709Z,14.10
2022-10-28T16:34:48.723Z,13.37
2022-10-28T16:37:23.661Z,14.13
2022-10-28T16:39:53.125Z,11.67
2022-10-28T16:42:22.701Z,10.97
2022-10-28T16:44:51.320Z,13.90
2022-10-28T16:47:20.981Z,10.80
2022-10-28T16:49:54.131Z,11.20
2022-10-28T16:52:26.782Z,11.23
2022-10-28T16:54:56.318Z,9.20
2022-10-28T16:59:57.565Z,10.07
2022-10-28T17:02:28.808Z,11.60
2022-10-28T17:04:57.606Z,13.90
2022-10-28T17:07:26.137Z,12.50
2022-10-28T17:09:56.795Z,12.47
2022-10-28T17:12:26.647Z,13.73
2022-10-28T17:14:54.985Z,12.60
2022-10-28T17:17:23.015Z,12.03
2022-10-28T17:19:51.092Z,13.70
2022-10-28T17:22:19.068Z,12.50
2022-10-28T17:24:47.074Z,15.53
2022-10-28T17:27:16.738Z,15.27
2022-10-28T17:29:44.799Z,13.67
2022-10-28T17:32:12.892Z,12.57
2022-10-28T17:34:40.992Z,13.93
2022-10-28T17:37:10.323Z,13.63
2022-10-28T17:39:38.806Z,15.03
2022-10-28T17:42:06.859Z,15.17
2022-10-28T17:44:36.563Z,12.87
2022-10-28T17:47:04.732Z,14.53
2022-10-28T17:49:34.240Z,12.13
2022-10-28T17:52:02.223Z,13.67
2022-10-28T17:54:30.279Z,13.43
2022-10-28T17:56:58.344Z,12.60
2022-10-28T17:59:26.339Z,13.30
2022-10-28T18:01:55.983Z,12.83
2022-10-28T18:04:26.388Z,14.83
2022-10-28T18:06:55.217Z,13.13
2022-10-28T18:09:23.691Z,12.37
2022-10-28T18:11:52.053Z,14.60
2022-10-28T18:14:20.959Z,15.87
2022-10-28T18:16:50.203Z,10.60
2022-10-28T18:19:19.552Z,20.03
2022-10-28T18:21:47.555Z,16.07
2022-10-28T18:24:15.579Z,18.07
2022-10-28T18:26:43.599Z,12.40
2022-10-28T18:29:13.157Z,14.40
2022-10-28T18:31:43.913Z,16.73
2022-10-28T18:34:12.332Z,11.23
2022-10-28T18:36:42.106Z,14.00
2022-10-28T18:39:10.221Z,11.83
2022-10-28T18:41:41.862Z,14.53
2022-10-28T18:44:16.988Z,14.77
2022-10-28T18:46:46.075Z,14.00
2022-10-28T18:49:14.354Z,15.80
2022-10-28T18:51:43.728Z,16.23
2022-10-28T18:54:11.821Z,12.60
2022-10-28T18:56:40.870Z,15.30
2022-10-28T18:59:10.653Z,15.70
2022-10-28T19:01:38.740Z,13.70
2022-10-28T19:04:06.925Z,12.67
2022-10-28T19:06:35.441Z,19.17
2022-10-28T19:09:07.818Z,13.93
2022-10-28T19:11:36.000Z,18.53
2022-10-28T19:14:06.190Z,15.17
2022-10-28T19:16:35.372Z,15.40
2022-10-28T19:19:04.975Z,20.57
2022-10-28T19:21:33.236Z,18.50
2022-10-28T19:24:01.739Z,12.83
2022-10-28T19:26:31.876Z,14.93
2022-10-28T19:29:00.237Z,17.27
2022-10-28T19:31:30.068Z,14.13
2022-10-28T19:33:58.204Z,17.77
2022-10-28T19:36:27.804Z,11.40
2022-10-28T19:38:57.077Z,13.60
2022-10-28T19:41:26.825Z,19.63
2022-10-28T19:43:58.698Z,15.77
2022-10-28T19:46:28.309Z,12.67
2022-10-28T19:48:59.227Z,14.83
2022-10-28T19:51:28.893Z,16.03
2022-10-28T19:53:58.634Z,18.87
2022-10-28T19:56:28.226Z,15.63
2022-10-28T19:58:59.422Z,16.67
2022-10-28T20:01:29.541Z,16.63
2022-10-28T20:03:57.728Z,15.83
2022-10-28T20:06:27.379Z,15.33
2022-10-28T20:08:55.396Z,17.93
2022-10-28T20:11:26.479Z,17.97
2022-10-28T20:13:57.882Z,16.13
2022-10-28T20:16:26.780Z,16.77
2022-10-28T20:18:55.512Z,14.10
2022-10-28T20:21:25.036Z,12.40
2022-10-28T20:23:54.967Z,18.43
2022-10-28T20:26:26.613Z,15.27
2022-10-28T20:28:54.693Z,14.97
2022-10-28T20:31:25.799Z,14.97
2022-10-28T20:33:55.203Z,15.73
2022-10-28T20:36:25.023Z,13.17
2022-10-28T20:38:56.711Z,18.83
2022-10-28T20:41:25.364Z,15.87
2022-10-28T20:43:54.381Z,14.63
2022-10-28T20:46:24.833Z,17.57
2022-10-28T20:48:54.153Z,18.60
2022-10-28T20:51:22.887Z,15.67
2022-10-28T20:53:51.580Z,20.40
2022-10-28T20:56:20.955Z,18.03
2022-10-28T20:58:49.009Z,16.73
2022-10-28T21:01:19.527Z,14.20
2022-10-28T21:03:49.892Z,21.73
2022-10-28T21:06:18.645Z,16.03
2022-10-28T21:08:46.675Z,16.73
2022-10-28T21:11:16.612Z,16.80
2022-10-28T21:13:46.140Z,17.57
2022-10-28T21:16:14.739Z,17.57
2022-10-28T21:18:42.744Z,13.73
2022-10-28T21:21:12.938Z,18.70
2022-10-28T21:23:40.947Z,17.97
2022-10-28T21:26:09.749Z,17.70
2022-10-28T21:28:37.854Z,17.70
2022-10-28T21:31:08.207Z,17.23
2022-10-28T21:33:37.828Z,17.30
2022-10-28T21:36:08.008Z,18.70
2022-10-28T21:38:38.712Z,12.03
2022-10-28T21:41:09.522Z,14.90
2022-10-28T21:43:39.195Z,16.60
2022-10-28T21:46:07.543Z,18.07
2022-10-28T21:48:37.197Z,12.53
2022-10-28T21:51:10.172Z,18.47
2022-10-28T21:53:45.043Z,14.37
2022-10-28T21:56:17.756Z,17.13
2022-10-28T21:58:47.927Z,16.63
2022-10-28T22:01:17.935Z,20.63
2022-10-28T22:03:46.073Z,15.20
2022-10-28T22:06:14.129Z,17.10
2022-10-28T22:08:43.806Z,14.00
2022-10-28T22:11:14.340Z,16.80
2022-10-28T22:13:42.592Z,18.57
2022-10-28T22:16:12.645Z,13.77
2022-10-28T22:18:40.863Z,17.03
2022-10-28T22:21:11.757Z,19.80
2022-10-28T22:23:40.165Z,16.10
2022-10-28T22:26:11.321Z,17.10
2022-10-28T22:28:39.937Z,19.87
2022-10-28T22:31:09.664Z,18.50
2022-10-28T22:33:38.075Z,18.20
2022-10-28T22:36:08.002Z,18.27
2022-10-28T22:38:36.397Z,16.73
2022-10-28T22:41:05.955Z,19.37
2022-10-28T22:43:35.772Z,20.30
2022-10-28T22:46:04.402Z,21.47
2022-10-28T22:48:33.255Z,18.27
2022-10-28T22:51:02.704Z,12.47
2022-10-28T22:53:31.021Z,16.70
2022-10-28T22:55:59.381Z,18.17
2022-10-28T22:58:29.141Z,16.20
2022-10-28T23:01:10.998Z,17.30
2022-10-28T23:03:40.820Z,17.47
2022-10-28T23:06:09.915Z,15.17
2022-10-28T23:08:39.356Z,15.17
2022-10-28T23:11:08.072Z,14.47
2022-10-28T23:16:08.368Z,16.57
2022-10-28T23:18:36.647Z,19.03
2022-10-28T23:21:06.269Z,16.20
2022-10-28T23:23:34.405Z,13.33
2022-10-28T23:26:02.485Z,18.33
2022-10-28T23:28:30.661Z,13.40
2022-10-28T23:31:01.109Z,18.97
2022-10-28T23:33:31.967Z,15.27
2022-10-28T23:36:01.998Z,17.43
2022-10-28T23:38:30.310Z,18.73
2022-10-28T23:40:59.911Z,15.33
2022-10-28T23:43:28.800Z,17.07
2022-10-28T23:45:57.354Z,18.37
2022-10-28T23:48:26.367Z,15.47
2022-10-28T23:50:56.173Z,14.00
2022-10-28T23:53:25.120Z,15.83
2022-10-28T23:55:53.327Z,14.97
2022-10-28T23:58:22.759Z,15.80
